Flight Track Log - Related Links

Times and Time Zones

All times are in EDT time to prevent confusion due to time zone crossing. See the ASQ5740 flight status page for this flight to view local times or setup timezone preferences in your user account.

Time Position Orientation Groundspeed Altitude Reporting Facility
EDT Latitude Longitude Course Direction KTS MPH feet Rate Location/Type
Sat 02:55:31 PM 34.9744 -82.0717 71° East 224 258 6,200  Level Atlanta Center
Sat 02:56:00 PM 35.1996 -81.8860 North  Level Estimated
Sat 02:56:31 PM 35.0086 -81.9922 62° Northeast 241 277 8,400  Level Atlanta Center
Sat 02:57:00 PM 35.2754 -81.8024 North  Level Estimated
Sat 02:57:31 PM 35.0514 -81.9303 50° Northeast 264 304 10,200  Level Atlanta Center
Sat 02:58:00 PM 35.3512 -81.7186 80° East  Level Estimated
Sat 02:58:31 PM 35.1369 -81.9358 357° North 244 281 11,900  Level Atlanta Center
Sat 02:59:00 PM 35.4269 -81.6347 71° East  Level Estimated
Sat 02:59:31 PM 35.2247 -81.9386 359° North 287 330 14,100  Level Atlanta Center
Sat 03:00:31 PM 35.3078 -81.9186 11° North 293 337 15,600 1,450 Climbing Atlanta Center
Sat 03:01:31 PM 35.3497 -81.8233 62° Northeast 273 314 17,000 1,200 Climbing Atlanta Center
Sat 03:02:31 PM 35.3897 -81.7206 64° Northeast 321 369 18,000 1,150 Climbing Atlanta Center
Sat 03:03:31 PM 35.4353 -81.6044 64° Northeast 334 384 19,300 1,250 Climbing Atlanta Center
Sat 03:04:31 PM 35.4769 -81.4961 65° Northeast 343 395 20,500 1,200 Climbing Atlanta Center
Sat 03:05:31 PM 35.5164 -81.3903 65° Northeast 343 395 21,700 1,100 Climbing Atlanta Center
Sat 03:06:31 PM 35.5461 -81.3078 66° East 343 395 22,700 1,200 Climbing Atlanta Center
Sat 03:07:31 PM 35.5972 -81.1706 65° Northeast 343 395 24,100 1,150 Climbing Atlanta Center
Sat 03:08:31 PM 35.6344 -81.0747 64° Northeast 343 395 25,000 750 Climbing Atlanta Center
Sat 03:09:31 PM 35.6778 -80.9658 64° Northeast 338 389 25,600 600 Climbing Atlanta Center
Sat 03:10:31 PM 35.7225 -80.8439 66° East 349 402 26,200 600 Climbing Atlanta Center
Sat 03:11:31 PM 35.7656 -80.7322 65° Northeast 349 402 26,800 600 Climbing Atlanta Center
Sat 03:12:31 PM 35.8081 -80.6153 66° East 354 407 27,400 600 Climbing Atlanta Center
Sat 03:13:31 PM 35.8531 -80.5006 64° Northeast 366 421 28,000 596 Climbing Atlanta Center
Sat 03:15:12 PM 35.9233 -80.3039 66° East 362 417 29,000 630 Climbing Washington Center
Sat 03:16:13 PM 35.9656 -80.1883 66° East 375 432 29,700 595 Climbing Washington Center
Sat 03:17:13 PM 36.0031 -80.0828 66° East 375 432 30,200 550 Climbing Washington Center
Sat 03:18:13 PM 36.0508 -79.9697 62° Northeast 367 422 30,800 403 Climbing Washington Center
Sat 03:19:12 PM 36.1089 -79.8703 54° Northeast 362 417 31,000 101 Climbing Washington Center
Sat 03:20:12 PM 36.1711 -79.7578 56° Northeast 371 427 31,000  Level Washington Center
Sat 03:21:12 PM 36.2378 -79.6428 54° Northeast 383 441 31,000  Level Washington Center
Sat 03:22:13 PM 36.2933 -79.5425 55° Northeast 383 441 31,000 -347 Level Washington Center
Sat 03:23:13 PM 36.3553 -79.4347 54° Northeast 383 441 30,300 -915 Descending Washington Center
Sat 03:24:11 PM 36.4150 -79.3217 57° Northeast 383 441 29,200 -1,160 Descending Washington Center
Sat 03:25:12 PM 36.4814 -79.2033 55° Northeast 383 441 28,000 -984 Descending Washington Center
Sat 03:26:13 PM 36.5383 -79.1131 52° Northeast 378 435 27,200 -893 Descending Washington Center
Sat 03:27:13 PM 36.6139 -79.0206 44° Northeast 378 435 26,200 -1,059 Descending Washington Center
Sat 03:28:12 PM 36.6967 -78.9050 48° Northeast 385 443 25,100 -600 Descending Washington Center
Sat 03:29:13 PM 36.7658 -78.8172 45° Northeast 398 458 25,000 -50 Descending Washington Center
Sat 03:30:13 PM 36.8433 -78.7194 45° Northeast 392 451 25,000  Level Washington Center
Sat 03:31:11 PM 36.9211 -78.6186 46° Northeast 392 451 25,000  Level Washington Center
Sat 03:32:13 PM 37.0072 -78.5075 46° Northeast 392 451 25,000 -149 Level Washington Center
Sat 03:34:00 PM 37.1680 -78.4229 55° Northeast  Level Estimated
Sat 03:35:12 PM 37.2431 -78.2400 55° Northeast 397 457 24,400  Level Washington Center
Sat 03:36:13 PM 37.3344 -78.1619 34° Northeast 397 457 23,400 -1,000 Descending Washington Center
Sat 03:37:12 PM 37.4236 -78.0867 34° Northeast 389 448 22,400 -1,008 Descending Washington Center
Sat 03:38:12 PM 37.5147 -78.0136 32° Northeast 389 448 21,400 -1,100 Descending Washington Center
Sat 03:39:12 PM 37.6061 -77.9353 34° Northeast 389 448 20,200 -1,513 Descending Washington Center
Sat 03:40:11 PM 37.6950 -77.8594 34° Northeast 384 442 18,400 -1,664 Descending Washington Center
Sat 03:41:11 PM 37.7797 -77.7883 34° Northeast 373 429 16,900 -1,636 Descending Washington Center
Sat 03:42:12 PM 37.8625 -77.7169 34° Northeast 373 429 15,100 -1,623 Descending Washington Center
Sat 03:43:13 PM 37.9450 -77.6456 34° Northeast 367 422 13,600 -1,537 Descending Washington Center
Sat 03:44:13 PM 38.0339 -77.5742 32° Northeast 355 409 12,000 -1,424 Descending Washington Center
Sat 03:45:11 PM 38.1100 -77.5103 33° Northeast 340 391 10,800 -1,017 Descending Washington Center
Sat 03:46:11 PM 38.1756 -77.4539 34° Northeast 311 358 10,000 -793 Descending Washington Center
Sat 03:47:12 PM 38.2428 -77.4106 27° Northeast 282 325 9,200 -893 Descending Washington Center
Sat 03:48:12 PM 38.3144 -77.3728 22° Northeast 270 311 8,200 -1,041 Descending Washington Center
Sat 03:49:13 PM 38.3897 -77.3586 North 265 305 7,100 -1,261 Descending Washington Center
Sat 03:50:11 PM 38.4619 -77.3947 339° North 265 305 5,700 -1,424 Descending Washington Center
Sat 03:51:11 PM 38.5303 -77.4308 338° Northwest 260 299 4,300 -843 Descending Washington Center
Sat 03:52:12 PM 38.5989 -77.4458 350° North 260 299 4,000 -186 Descending Washington Center
Sat 03:52:48 PM 38.6500 -77.4333 11° North 245 282 4,000  Level Potomac TRACON
Sat 03:53:49 PM 38.7000 -77.4333 360° North 229 264 4,000 -298 Level Potomac TRACON
Sat 03:54:49 PM 38.7667 -77.4333 360° North 237 273 3,400 -900 Descending Potomac TRACON
Sat 03:55:49 PM 38.8333 -77.4333 360° North 205 236 2,200 -1,050 Descending Potomac TRACON
Sat 03:56:49 PM 38.8833 -77.4333 360° North 153 176 1,300 -900 Descending Potomac TRACON

Login

Don't have an account? Register now (free) for customized features, flight alerts, and more!